sensor_id;sensor_type;location;lat;lon;timestamp;pressure;altitude;pressure_sealevel;temperature;humidity
69127;BME280;56688;50.234;19.292;2023-03-23T00:02:25;98068.00;;;6.77;72.84
69127;BME280;56688;50.234;19.292;2023-03-23T00:04:51;98068.77;;;6.69;72.63
69127;BME280;56688;50.234;19.292;2023-03-23T00:07:20;98071.02;;;6.62;73.01
69127;BME280;56688;50.234;19.292;2023-03-23T00:09:48;98071.50;;;6.55;73.25
69127;BME280;56688;50.234;19.292;2023-03-23T00:12:20;98069.02;;;6.47;73.16
69127;BME280;56688;50.234;19.292;2023-03-23T00:14:47;98073.27;;;6.39;73.55
69127;BME280;56688;50.234;19.292;2023-03-23T00:17:13;98071.33;;;6.29;73.39
69127;BME280;56688;50.234;19.292;2023-03-23T00:19:40;98075.18;;;6.19;73.61
69127;BME280;56688;50.234;19.292;2023-03-23T00:22:13;98075.68;;;6.08;73.48
69127;BME280;56688;50.234;19.292;2023-03-23T00:24:41;98074.85;;;6.00;74.16
69127;BME280;56688;50.234;19.292;2023-03-23T00:27:07;98078.38;;;5.93;74.61
69127;BME280;56688;50.234;19.292;2023-03-23T00:29:34;98073.07;;;5.88;74.46
69127;BME280;56688;50.234;19.292;2023-03-23T00:32:00;98076.41;;;5.84;74.51
69127;BME280;56688;50.234;19.292;2023-03-23T00:34:31;98069.75;;;5.77;74.80
69127;BME280;56688;50.234;19.292;2023-03-23T00:36:58;98076.56;;;5.71;74.93
69127;BME280;56688;50.234;19.292;2023-03-23T00:39:26;98073.29;;;5.62;74.64
69127;BME280;56688;50.234;19.292;2023-03-23T00:41:53;98075.52;;;5.51;74.92
69127;BME280;56688;50.234;19.292;2023-03-23T00:44:27;98073.99;;;5.43;75.31
69127;BME280;56688;50.234;19.292;2023-03-23T00:46:54;98071.95;;;5.37;75.65
69127;BME280;56688;50.234;19.292;2023-03-23T00:49:23;98071.44;;;5.34;76.00
69127;BME280;56688;50.234;19.292;2023-03-23T00:51:52;98066.05;;;5.32;76.27
69127;BME280;56688;50.234;19.292;2023-03-23T00:54:18;98064.50;;;5.29;76.33
69127;BME280;56688;50.234;19.292;2023-03-23T00:56:45;98059.06;;;5.24;76.26
69127;BME280;56688;50.234;19.292;2023-03-23T00:59:11;98064.06;;;5.17;76.46
69127;BME280;56688;50.234;19.292;2023-03-23T01:01:37;98062.49;;;5.12;76.45
69127;BME280;56688;50.234;19.292;2023-03-23T01:04:04;98056.94;;;5.08;76.57
69127;BME280;56688;50.234;19.292;2023-03-23T01:06:34;98055.74;;;5.06;77.01
69127;BME280;56688;50.234;19.292;2023-03-23T01:09:06;98055.64;;;5.05;77.12
69127;BME280;56688;50.234;19.292;2023-03-23T01:11:33;98055.46;;;5.05;77.03
69127;BME280;56688;50.234;19.292;2023-03-23T01:13:59;98055.99;;;5.03;76.79
69127;BME280;56688;50.234;19.292;2023-03-23T01:16:26;98059.68;;;5.00;76.44
69127;BME280;56688;50.234;19.292;2023-03-23T01:18:51;98057.84;;;4.96;76.33
69127;BME280;56688;50.234;19.292;2023-03-23T01:21:19;98057.88;;;4.91;76.61
69127;BME280;56688;50.234;19.292;2023-03-23T01:23:45;98059.81;;;4.83;76.39
69127;BME280;56688;50.234;19.292;2023-03-23T01:26:15;98060.92;;;4.76;76.40
69127;BME280;56688;50.234;19.292;2023-03-23T01:28:42;98062.16;;;4.68;76.81
69127;BME280;56688;50.234;19.292;2023-03-23T01:31:11;98060.34;;;4.64;77.23
69127;BME280;56688;50.234;19.292;2023-03-23T01:33:38;98059.02;;;4.62;77.47
69127;BME280;56688;50.234;19.292;2023-03-23T01:36:09;98063.54;;;4.61;78.08
69127;BME280;56688;50.234;19.292;2023-03-23T01:38:36;98058.75;;;4.63;78.53
69127;BME280;56688;50.234;19.292;2023-03-23T01:41:03;98061.23;;;4.64;78.74
69127;BME280;56688;50.234;19.292;2023-03-23T01:43:29;98059.08;;;4.60;78.60
69127;BME280;56688;50.234;19.292;2023-03-23T01:45:55;98053.06;;;4.53;78.53
69127;BME280;56688;50.234;19.292;2023-03-23T01:48:37;98057.72;;;4.53;78.47
69127;BME280;56688;50.234;19.292;2023-03-23T01:51:07;98055.33;;;4.54;78.76
69127;BME280;56688;50.234;19.292;2023-03-23T01:53:38;98052.54;;;4.55;78.87
69127;BME280;56688;50.234;19.292;2023-03-23T01:56:07;98053.30;;;4.55;78.58
69127;BME280;56688;50.234;19.292;2023-03-23T01:58:38;98054.52;;;4.53;78.40
69127;BME280;56688;50.234;19.292;2023-03-23T02:01:08;98047.79;;;4.51;78.72
69127;BME280;56688;50.234;19.292;2023-03-23T02:03:39;98046.50;;;4.49;79.15
69127;BME280;56688;50.234;19.292;2023-03-23T02:06:07;98042.56;;;4.49;79.50
69127;BME280;56688;50.234;19.292;2023-03-23T02:08:43;98040.48;;;4.51;79.61
69127;BME280;56688;50.234;19.292;2023-03-23T02:11:16;98039.02;;;4.51;79.62
69127;BME280;56688;50.234;19.292;2023-03-23T02:13:43;98037.09;;;4.53;79.58
69127;BME280;56688;50.234;19.292;2023-03-23T02:16:18;98037.42;;;4.53;79.73
69127;BME280;56688;50.234;19.292;2023-03-23T02:26:54;98032.11;;;4.60;80.01
69127;BME280;56688;50.234;19.292;2023-03-23T02:29:32;98026.53;;;4.61;80.25
69127;BME280;56688;50.234;19.292;2023-03-23T02:34:45;98025.02;;;4.68;80.19
69127;BME280;56688;50.234;19.292;2023-03-23T02:40:04;98019.70;;;4.71;80.17
69127;BME280;56688;50.234;19.292;2023-03-23T02:42:36;98014.15;;;4.71;80.36
69127;BME280;56688;50.234;19.292;2023-03-23T02:45:05;98013.71;;;4.72;80.95
69127;BME280;56688;50.234;19.292;2023-03-23T02:47:34;98011.59;;;4.75;81.09
69127;BME280;56688;50.234;19.292;2023-03-23T02:50:02;98008.00;;;4.81;81.48
69127;BME280;56688;50.234;19.292;2023-03-23T02:52:30;98006.29;;;4.88;81.69
69127;BME280;56688;50.234;19.292;2023-03-23T02:54:57;98006.98;;;4.95;81.49
69127;BME280;56688;50.234;19.292;2023-03-23T02:57:25;98006.52;;;5.02;82.05
69127;BME280;56688;50.234;19.292;2023-03-23T02:59:53;98001.27;;;5.17;83.42
69127;BME280;56688;50.234;19.292;2023-03-23T03:02:29;97999.22;;;5.35;84.87
69127;BME280;56688;50.234;19.292;2023-03-23T03:05:01;97998.15;;;5.63;86.03
69127;BME280;56688;50.234;19.292;2023-03-23T03:07:35;97996.98;;;5.94;86.64
69127;BME280;56688;50.234;19.292;2023-03-23T03:10:14;97996.84;;;6.25;86.42
69127;BME280;56688;50.234;19.292;2023-03-23T03:12:54;97989.54;;;6.58;86.49
69127;BME280;56688;50.234;19.292;2023-03-23T03:15:31;97991.05;;;6.90;85.99
69127;BME280;56688;50.234;19.292;2023-03-23T03:18:05;97992.24;;;7.22;85.47
69127;BME280;56688;50.234;19.292;2023-03-23T03:20:38;97986.13;;;7.51;84.44
69127;BME280;56688;50.234;19.292;2023-03-23T03:23:07;97983.52;;;7.76;83.09
69127;BME280;56688;50.234;19.292;2023-03-23T03:25:36;97980.30;;;8.04;81.93
69127;BME280;56688;50.234;19.292;2023-03-23T03:28:02;97984.47;;;8.27;80.53
69127;BME280;56688;50.234;19.292;2023-03-23T03:30:40;97980.78;;;8.49;78.97
69127;BME280;56688;50.234;19.292;2023-03-23T03:33:06;97974.07;;;8.67;77.93
69127;BME280;56688;50.234;19.292;2023-03-23T03:35:36;97970.27;;;8.85;76.64
69127;BME280;56688;50.234;19.292;2023-03-23T03:38:06;97969.19;;;9.04;75.42
69127;BME280;56688;50.234;19.292;2023-03-23T03:40:33;97974.58;;;9.17;74.57
69127;BME280;56688;50.234;19.292;2023-03-23T03:43:00;97973.66;;;9.29;73.88
69127;BME280;56688;50.234;19.292;2023-03-23T03:45:26;97971.89;;;9.38;73.20
69127;BME280;56688;50.234;19.292;2023-03-23T03:47:51;97972.68;;;9.45;72.74
69127;BME280;56688;50.234;19.292;2023-03-23T03:50:17;97978.46;;;9.51;72.38
69127;BME280;56688;50.234;19.292;2023-03-23T03:52:43;97979.58;;;9.58;72.03
69127;BME280;56688;50.234;19.292;2023-03-23T03:55:10;97980.77;;;9.65;71.55
69127;BME280;56688;50.234;19.292;2023-03-23T03:57:38;97979.01;;;9.70;71.06
69127;BME280;56688;50.234;19.292;2023-03-23T04:00:06;97978.80;;;9.75;70.72
69127;BME280;56688;50.234;19.292;2023-03-23T04:02:44;97974.21;;;9.78;70.37
69127;BME280;56688;50.234;19.292;2023-03-23T04:05:13;97975.98;;;9.79;70.28
69127;BME280;56688;50.234;19.292;2023-03-23T04:07:40;97973.96;;;9.75;70.16
69127;BME280;56688;50.234;19.292;2023-03-23T04:10:09;97981.38;;;9.70;70.22
69127;BME280;56688;50.234;19.292;2023-03-23T04:12:37;97985.65;;;9.65;70.26
69127;BME280;56688;50.234;19.292;2023-03-23T04:15:24;97990.19;;;9.60;70.51
69127;BME280;56688;50.234;19.292;2023-03-23T04:17:50;97989.85;;;9.55;70.59
69127;BME280;56688;50.234;19.292;2023-03-23T04:20:16;97990.51;;;9.50;70.66
69127;BME280;56688;50.234;19.292;2023-03-23T04:22:47;97991.75;;;9.44;70.77
69127;BME280;56688;50.234;19.292;2023-03-23T04:25:19;97991.63;;;9.41;70.80
69127;BME280;56688;50.234;19.292;2023-03-23T04:27:48;97988.16;;;9.36;70.93
69127;BME280;56688;50.234;19.292;2023-03-23T04:30:21;97988.63;;;9.35;71.00
69127;BME280;56688;50.234;19.292;2023-03-23T04:32:59;97991.06;;;9.36;71.05
69127;BME280;56688;50.234;19.292;2023-03-23T04:35:27;97984.23;;;9.39;70.99
69127;BME280;56688;50.234;19.292;2023-03-23T04:38:05;97985.23;;;9.44;70.55
69127;BME280;56688;50.234;19.292;2023-03-23T04:40:36;97982.73;;;9.44;70.45
69127;BME280;56688;50.234;19.292;2023-03-23T04:43:10;97978.30;;;9.42;70.45
69127;BME280;56688;50.234;19.292;2023-03-23T04:45:55;97974.98;;;9.39;70.41
69127;BME280;56688;50.234;19.292;2023-03-23T04:48:24;97971.15;;;9.36;70.53
69127;BME280;56688;50.234;19.292;2023-03-23T04:50:58;97972.55;;;9.35;70.56
69127;BME280;56688;50.234;19.292;2023-03-23T04:53:29;97966.10;;;9.32;70.43
69127;BME280;56688;50.234;19.292;2023-03-23T04:55:55;97966.02;;;9.28;70.35
69127;BME280;56688;50.234;19.292;2023-03-23T04:58:21;97965.54;;;9.20;70.52
69127;BME280;56688;50.234;19.292;2023-03-23T05:01:00;97961.54;;;9.11;70.52
69127;BME280;56688;50.234;19.292;2023-03-23T05:03:26;97963.22;;;9.03;71.13
69127;BME280;56688;50.234;19.292;2023-03-23T05:05:53;97959.71;;;8.98;71.35
69127;BME280;56688;50.234;19.292;2023-03-23T05:08:20;97960.25;;;8.98;71.58
69127;BME280;56688;50.234;19.292;2023-03-23T05:10:52;97958.79;;;9.02;71.61
69127;BME280;56688;50.234;19.292;2023-03-23T05:13:19;97966.30;;;9.07;71.62
69127;BME280;56688;50.234;19.292;2023-03-23T05:15:47;97964.73;;;9.15;71.59
69127;BME280;56688;50.234;19.292;2023-03-23T05:18:13;97971.73;;;9.24;71.32
69127;BME280;56688;50.234;19.292;2023-03-23T05:20:40;97979.65;;;9.36;71.04
69127;BME280;56688;50.234;19.292;2023-03-23T05:23:13;97984.73;;;9.49;70.53
69127;BME280;56688;50.234;19.292;2023-03-23T05:25:39;97986.13;;;9.61;70.18
69127;BME280;56688;50.234;19.292;2023-03-23T05:28:12;97986.20;;;9.71;69.71
69127;BME280;56688;50.234;19.292;2023-03-23T05:30:53;97991.29;;;9.84;69.43
69127;BME280;56688;50.234;19.292;2023-03-23T05:33:20;97992.06;;;9.98;69.23
69127;BME280;56688;50.234;19.292;2023-03-23T05:35:54;97989.34;;;10.11;68.82
69127;BME280;56688;50.234;19.292;2023-03-23T05:38:24;97989.86;;;10.15;66.79
69127;BME280;56688;50.234;19.292;2023-03-23T05:40:51;97990.41;;;10.19;65.05
69127;BME280;56688;50.234;19.292;2023-03-23T05:43:25;97984.44;;;10.21;64.16
69127;BME280;56688;50.234;19.292;2023-03-23T05:46:03;97982.05;;;10.15;64.62
69127;BME280;56688;50.234;19.292;2023-03-23T05:48:29;97980.66;;;10.08;65.99
69127;BME280;56688;50.234;19.292;2023-03-23T05:50:55;97984.98;;;10.13;67.67
69127;BME280;56688;50.234;19.292;2023-03-23T05:53:22;97989.86;;;10.26;67.91
69127;BME280;56688;50.234;19.292;2023-03-23T05:55:49;97989.05;;;10.42;68.09
69127;BME280;56688;50.234;19.292;2023-03-23T05:58:22;97987.56;;;10.61;67.41
69127;BME280;56688;50.234;19.292;2023-03-23T06:00:48;97985.73;;;10.82;66.70
69127;BME280;56688;50.234;19.292;2023-03-23T06:03:24;97978.70;;;11.04;65.72
69127;BME280;56688;50.234;19.292;2023-03-23T06:05:57;97978.71;;;11.25;65.34
69127;BME280;56688;50.234;19.292;2023-03-23T06:08:30;97981.77;;;11.44;64.41
69127;BME280;56688;50.234;19.292;2023-03-23T06:10:56;97977.59;;;11.59;63.85
69127;BME280;56688;50.234;19.292;2023-03-23T06:13:23;97970.08;;;11.73;63.79
69127;BME280;56688;50.234;19.292;2023-03-23T06:15:55;97970.41;;;11.88;63.21
69127;BME280;56688;50.234;19.292;2023-03-23T06:18:39;97972.60;;;12.03;62.94
69127;BME280;56688;50.234;19.292;2023-03-23T06:21:12;97971.91;;;12.15;62.45
69127;BME280;56688;50.234;19.292;2023-03-23T06:23:50;97968.96;;;12.31;61.83
69127;BME280;56688;50.234;19.292;2023-03-23T06:26:18;97972.81;;;12.45;61.79
69127;BME280;56688;50.234;19.292;2023-03-23T06:28:48;97972.63;;;12.60;61.72
69127;BME280;56688;50.234;19.292;2023-03-23T06:31:15;97967.33;;;12.72;60.49
69127;BME280;56688;50.234;19.292;2023-03-23T06:33:42;97964.40;;;12.87;60.45
69127;BME280;56688;50.234;19.292;2023-03-23T06:36:16;97959.21;;;12.96;60.07
69127;BME280;56688;50.234;19.292;2023-03-23T06:38:56;97960.45;;;13.03;59.47
69127;BME280;56688;50.234;19.292;2023-03-23T06:41:31;97963.69;;;13.06;59.48
69127;BME280;56688;50.234;19.292;2023-03-23T06:43:57;97968.89;;;13.10;59.10
69127;BME280;56688;50.234;19.292;2023-03-23T06:46:28;97969.11;;;13.15;59.49
69127;BME280;56688;50.234;19.292;2023-03-23T06:48:54;97969.63;;;13.23;58.96
69127;BME280;56688;50.234;19.292;2023-03-23T06:51:27;97973.14;;;13.27;58.65
69127;BME280;56688;50.234;19.292;2023-03-23T06:53:53;97976.34;;;13.33;58.14
69127;BME280;56688;50.234;19.292;2023-03-23T06:56:19;97975.38;;;13.37;57.90
69127;BME280;56688;50.234;19.292;2023-03-23T06:58:45;97978.77;;;13.39;57.76
69127;BME280;56688;50.234;19.292;2023-03-23T07:01:12;97977.64;;;13.41;57.51
69127;BME280;56688;50.234;19.292;2023-03-23T07:03:46;97978.36;;;13.44;57.51
69127;BME280;56688;50.234;19.292;2023-03-23T07:06:12;97978.92;;;13.43;57.40
69127;BME280;56688;50.234;19.292;2023-03-23T07:08:46;97980.96;;;13.45;57.09
69127;BME280;56688;50.234;19.292;2023-03-23T07:11:16;97980.67;;;13.48;57.22
69127;BME280;56688;50.234;19.292;2023-03-23T07:13:42;97977.73;;;13.51;57.15
69127;BME280;56688;50.234;19.292;2023-03-23T07:16:08;97977.86;;;13.55;57.59
69127;BME280;56688;50.234;19.292;2023-03-23T07:18:34;97978.73;;;13.60;56.93
69127;BME280;56688;50.234;19.292;2023-03-23T07:21:03;97975.77;;;13.66;57.48
69127;BME280;56688;50.234;19.292;2023-03-23T07:23:30;97978.23;;;13.74;56.84
69127;BME280;56688;50.234;19.292;2023-03-23T07:26:03;97978.99;;;13.83;56.26
69127;BME280;56688;50.234;19.292;2023-03-23T07:28:35;97982.79;;;13.89;56.11
69127;BME280;56688;50.234;19.292;2023-03-23T07:31:09;97986.61;;;13.94;55.73
69127;BME280;56688;50.234;19.292;2023-03-23T07:33:36;97991.08;;;13.98;55.97
69127;BME280;56688;50.234;19.292;2023-03-23T07:36:04;97989.66;;;14.00;55.58
69127;BME280;56688;50.234;19.292;2023-03-23T07:38:31;97982.39;;;13.99;55.46
69127;BME280;56688;50.234;19.292;2023-03-23T07:40:57;97983.46;;;13.97;55.68
69127;BME280;56688;50.234;19.292;2023-03-23T07:43:24;97990.11;;;13.97;55.91
69127;BME280;56688;50.234;19.292;2023-03-23T07:46:05;97989.64;;;13.98;55.46
69127;BME280;56688;50.234;19.292;2023-03-23T07:48:38;97990.70;;;13.96;55.57
69127;BME280;56688;50.234;19.292;2023-03-23T07:51:05;97993.63;;;13.95;55.52
69127;BME280;56688;50.234;19.292;2023-03-23T07:53:33;97996.14;;;13.95;54.98
69127;BME280;56688;50.234;19.292;2023-03-23T07:56:11;97996.95;;;13.96;55.44
69127;BME280;56688;50.234;19.292;2023-03-23T07:58:46;97998.37;;;14.00;55.74
69127;BME280;56688;50.234;19.292;2023-03-23T08:01:12;97998.17;;;14.08;55.80
69127;BME280;56688;50.234;19.292;2023-03-23T08:03:40;97997.42;;;14.15;55.53
69127;BME280;56688;50.234;19.292;2023-03-23T08:06:13;97993.76;;;14.22;55.68
69127;BME280;56688;50.234;19.292;2023-03-23T08:08:54;97992.77;;;14.29;55.12
69127;BME280;56688;50.234;19.292;2023-03-23T08:11:35;97993.94;;;14.35;55.06
69127;BME280;56688;50.234;19.292;2023-03-23T08:14:22;97996.27;;;14.45;54.68
69127;BME280;56688;50.234;19.292;2023-03-23T08:16:57;97995.34;;;14.56;54.07
69127;BME280;56688;50.234;19.292;2023-03-23T08:19:36;97991.02;;;14.74;53.95
69127;BME280;56688;50.234;19.292;2023-03-23T08:22:17;97988.20;;;15.03;53.02
69127;BME280;56688;50.234;19.292;2023-03-23T08:25:04;97985.36;;;15.38;52.71
69127;BME280;56688;50.234;19.292;2023-03-23T08:27:43;97984.73;;;15.61;52.21
69127;BME280;56688;50.234;19.292;2023-03-23T08:30:19;97985.89;;;15.81;52.28
69127;BME280;56688;50.234;19.292;2023-03-23T08:32:59;97985.73;;;16.00;51.00
69127;BME280;56688;50.234;19.292;2023-03-23T08:35:27;97987.45;;;16.17;50.70
69127;BME280;56688;50.234;19.292;2023-03-23T08:38:06;97985.85;;;16.39;49.91
69127;BME280;56688;50.234;19.292;2023-03-23T08:40:48;97981.20;;;16.92;49.36
69127;BME280;56688;50.234;19.292;2023-03-23T08:43:17;97975.70;;;17.54;48.22
69127;BME280;56688;50.234;19.292;2023-03-23T08:46:03;97973.16;;;18.10;45.90
69127;BME280;56688;50.234;19.292;2023-03-23T08:48:49;97973.11;;;18.70;44.94
69127;BME280;56688;50.234;19.292;2023-03-23T08:51:19;97966.69;;;19.29;43.10
69127;BME280;56688;50.234;19.292;2023-03-23T08:53:56;97962.31;;;19.82;41.51
69127;BME280;56688;50.234;19.292;2023-03-23T08:56:41;97963.11;;;20.28;40.66
69127;BME280;56688;50.234;19.292;2023-03-23T08:59:27;97961.02;;;20.64;40.03
69127;BME280;56688;50.234;19.292;2023-03-23T09:02:12;97964.84;;;20.68;38.42
69127;BME280;56688;50.234;19.292;2023-03-23T09:04:49;97961.42;;;20.73;38.52
69127;BME280;56688;50.234;19.292;2023-03-23T09:07:37;97963.45;;;21.05;38.13
69127;BME280;56688;50.234;19.292;2023-03-23T09:10:03;97956.09;;;21.41;38.24
69127;BME280;56688;50.234;19.292;2023-03-23T09:12:29;97963.84;;;21.91;37.64
69127;BME280;56688;50.234;19.292;2023-03-23T09:14:55;97963.80;;;22.17;35.99
69127;BME280;56688;50.234;19.292;2023-03-23T09:17:21;97964.24;;;22.06;35.90
69127;BME280;56688;50.234;19.292;2023-03-23T09:19:47;97960.34;;;21.94;35.78
69127;BME280;56688;50.234;19.292;2023-03-23T09:22:12;97962.16;;;21.72;36.04
69127;BME280;56688;50.234;19.292;2023-03-23T09:24:40;97961.34;;;21.85;36.81
69127;BME280;56688;50.234;19.292;2023-03-23T09:27:22;97956.25;;;22.11;36.27
69127;BME280;56688;50.234;19.292;2023-03-23T09:29:48;97955.86;;;22.31;35.58
69127;BME280;56688;50.234;19.292;2023-03-23T09:32:14;97958.04;;;22.47;35.78
69127;BME280;56688;50.234;19.292;2023-03-23T09:34:40;97960.77;;;22.60;34.91
69127;BME280;56688;50.234;19.292;2023-03-23T09:37:06;97962.11;;;22.63;33.84
69127;BME280;56688;50.234;19.292;2023-03-23T09:39:32;97963.81;;;22.46;33.96
69127;BME280;56688;50.234;19.292;2023-03-23T09:49:59;97961.96;;;22.45;34.27
69127;BME280;56688;50.234;19.292;2023-03-23T09:52:38;97958.98;;;22.55;33.35
69127;BME280;56688;50.234;19.292;2023-03-23T09:55:09;97954.17;;;22.47;33.02
69127;BME280;56688;50.234;19.292;2023-03-23T10:00:20;97949.64;;;22.50;33.47
69127;BME280;56688;50.234;19.292;2023-03-23T10:02:55;97944.23;;;22.52;32.87
69127;BME280;56688;50.234;19.292;2023-03-23T10:08:00;97946.90;;;22.40;33.05
69127;BME280;56688;50.234;19.292;2023-03-23T10:10:33;97949.93;;;22.32;33.27
69127;BME280;56688;50.234;19.292;2023-03-23T10:13:14;97940.10;;;22.24;32.76
69127;BME280;56688;50.234;19.292;2023-03-23T10:15:43;97933.77;;;22.08;33.65
69127;BME280;56688;50.234;19.292;2023-03-23T10:18:20;97930.44;;;22.16;34.70
69127;BME280;56688;50.234;19.292;2023-03-23T10:20:59;97924.54;;;22.36;33.60
69127;BME280;56688;50.234;19.292;2023-03-23T10:23:39;97935.27;;;22.36;33.16
69127;BME280;56688;50.234;19.292;2023-03-23T10:26:19;97919.17;;;22.20;33.07
69127;BME280;56688;50.234;19.292;2023-03-23T10:28:51;97914.91;;;21.99;33.47
69127;BME280;56688;50.234;19.292;2023-03-23T10:31:24;97917.55;;;21.84;34.35
69127;BME280;56688;50.234;19.292;2023-03-23T10:33:54;97907.23;;;21.80;34.59
69127;BME280;56688;50.234;19.292;2023-03-23T10:36:28;97904.13;;;21.76;34.03
69127;BME280;56688;50.234;19.292;2023-03-23T10:39:02;97897.60;;;21.75;34.19
69127;BME280;56688;50.234;19.292;2023-03-23T10:41:31;97900.07;;;21.72;34.78
69127;BME280;56688;50.234;19.292;2023-03-23T10:44:07;97905.27;;;21.75;34.81
69127;BME280;56688;50.234;19.292;2023-03-23T10:46:44;97893.58;;;21.81;33.65
69127;BME280;56688;50.234;19.292;2023-03-23T10:49:21;97890.08;;;21.86;33.77
69127;BME280;56688;50.234;19.292;2023-03-23T10:51:58;97884.86;;;21.89;33.74
69127;BME280;56688;50.234;19.292;2023-03-23T10:54:32;97881.71;;;21.98;33.14
69127;BME280;56688;50.234;19.292;2023-03-23T10:57:13;97885.87;;;21.94;33.09
69127;BME280;56688;50.234;19.292;2023-03-23T10:59:45;97886.05;;;21.65;32.48
69127;BME280;56688;50.234;19.292;2023-03-23T11:02:16;97887.33;;;21.28;31.67
69127;BME280;56688;50.234;19.292;2023-03-23T11:04:53;97881.23;;;20.90;32.40
69127;BME280;56688;50.234;19.292;2023-03-23T11:07:24;97877.52;;;20.61;33.11
69127;BME280;56688;50.234;19.292;2023-03-23T11:09:55;97890.24;;;20.39;33.76
69127;BME280;56688;50.234;19.292;2023-03-23T11:12:21;97892.13;;;20.19;34.25
69127;BME280;56688;50.234;19.292;2023-03-23T11:14:49;97890.98;;;19.95;34.46
69127;BME280;56688;50.234;19.292;2023-03-23T11:17:24;97887.29;;;19.74;35.06
69127;BME280;56688;50.234;19.292;2023-03-23T11:19:52;97888.75;;;19.59;35.63
69127;BME280;56688;50.234;19.292;2023-03-23T11:22:31;97891.36;;;19.48;36.13
69127;BME280;56688;50.234;19.292;2023-03-23T11:25:03;97897.86;;;19.38;36.74
69127;BME280;56688;50.234;19.292;2023-03-23T11:27:30;97902.63;;;19.25;36.60
69127;BME280;56688;50.234;19.292;2023-03-23T11:30:01;97903.41;;;19.08;36.53
69127;BME280;56688;50.234;19.292;2023-03-23T11:32:35;97903.46;;;18.90;36.85
69127;BME280;56688;50.234;19.292;2023-03-23T11:35:05;97901.15;;;18.74;37.38
69127;BME280;56688;50.234;19.292;2023-03-23T11:45:31;97901.15;;;18.34;38.11
69127;BME280;56688;50.234;19.292;2023-03-23T11:48:54;97906.11;;;18.23;38.64
69127;BME280;56688;50.234;19.292;2023-03-23T11:56:30;97903.89;;;18.09;39.16
69127;BME280;56688;50.234;19.292;2023-03-23T11:59:00;97902.85;;;18.09;39.26
69127;BME280;56688;50.234;19.292;2023-03-23T12:04:11;97903.64;;;18.11;39.54
69127;BME280;56688;50.234;19.292;2023-03-23T12:06:48;97905.63;;;18.10;39.41
69127;BME280;56688;50.234;19.292;2023-03-23T12:17:33;97901.71;;;18.03;39.87
69127;BME280;56688;50.234;19.292;2023-03-23T12:30:29;97893.88;;;18.09;40.46
69127;BME280;56688;50.234;19.292;2023-03-23T12:46:24;97889.33;;;18.10;40.41
69127;BME280;56688;50.234;19.292;2023-03-23T12:54:35;97889.29;;;18.14;40.69
69127;BME280;56688;50.234;19.292;2023-03-23T12:57:24;97890.73;;;18.16;40.53
69127;BME280;56688;50.234;19.292;2023-03-23T13:00:03;97889.84;;;18.15;40.45
69127;BME280;56688;50.234;19.292;2023-03-23T13:02:42;97894.59;;;18.14;41.09
69127;BME280;56688;50.234;19.292;2023-03-23T13:05:25;97893.98;;;18.13;40.60
69127;BME280;56688;50.234;19.292;2023-03-23T13:08:05;97894.42;;;18.12;40.67
69127;BME280;56688;50.234;19.292;2023-03-23T13:10:38;97893.84;;;18.15;40.89
69127;BME280;56688;50.234;19.292;2023-03-23T13:13:13;97885.63;;;18.19;41.28
69127;BME280;56688;50.234;19.292;2023-03-23T13:15:49;97890.80;;;18.23;40.70
69127;BME280;56688;50.234;19.292;2023-03-23T13:23:41;97886.33;;;18.24;40.47
69127;BME280;56688;50.234;19.292;2023-03-23T13:26:13;97880.95;;;18.22;40.20
69127;BME280;56688;50.234;19.292;2023-03-23T13:33:57;97881.74;;;18.20;41.15
69127;BME280;56688;50.234;19.292;2023-03-23T13:36:28;97880.14;;;18.26;41.20
69127;BME280;56688;50.234;19.292;2023-03-23T13:38:56;97871.02;;;18.33;40.81
69127;BME280;56688;50.234;19.292;2023-03-23T13:41:25;97873.77;;;18.37;40.60
69127;BME280;56688;50.234;19.292;2023-03-23T13:43:51;97864.69;;;18.38;40.28
69127;BME280;56688;50.234;19.292;2023-03-23T13:48:46;97860.23;;;18.35;40.28
69127;BME280;56688;50.234;19.292;2023-03-23T13:54:06;97859.38;;;18.36;40.34
69127;BME280;56688;50.234;19.292;2023-03-23T13:56:40;97858.71;;;18.45;40.51
69127;BME280;56688;50.234;19.292;2023-03-23T13:59:13;97856.58;;;18.53;40.15
69127;BME280;56688;50.234;19.292;2023-03-23T14:01:41;97855.88;;;18.59;39.91
69127;BME280;56688;50.234;19.292;2023-03-23T14:04:15;97845.85;;;18.63;39.48
69127;BME280;56688;50.234;19.292;2023-03-23T14:06:42;97844.56;;;18.67;39.76
69127;BME280;56688;50.234;19.292;2023-03-23T14:09:25;97847.75;;;18.71;39.97
69127;BME280;56688;50.234;19.292;2023-03-23T14:11:59;97845.52;;;18.75;39.47
69127;BME280;56688;50.234;19.292;2023-03-23T14:14:33;97849.57;;;18.80;39.94
69127;BME280;56688;50.234;19.292;2023-03-23T14:19:47;97838.48;;;18.87;39.25
69127;BME280;56688;50.234;19.292;2023-03-23T14:22:19;97840.17;;;18.90;39.34
69127;BME280;56688;50.234;19.292;2023-03-23T14:24:47;97836.77;;;18.90;39.43
69127;BME280;56688;50.234;19.292;2023-03-23T14:27:17;97836.61;;;18.91;39.96
69127;BME280;56688;50.234;19.292;2023-03-23T14:29:44;97836.67;;;18.93;39.83
69127;BME280;56688;50.234;19.292;2023-03-23T14:32:14;97840.04;;;18.93;39.97
69127;BME280;56688;50.234;19.292;2023-03-23T14:34:41;97844.09;;;18.93;39.68
69127;BME280;56688;50.234;19.292;2023-03-23T14:37:12;97840.98;;;18.89;39.44
69127;BME280;56688;50.234;19.292;2023-03-23T14:39:39;97846.11;;;18.87;39.38
69127;BME280;56688;50.234;19.292;2023-03-23T14:42:09;97851.82;;;18.85;39.81
69127;BME280;56688;50.234;19.292;2023-03-23T14:44:40;97846.89;;;18.84;39.93
69127;BME280;56688;50.234;19.292;2023-03-23T14:47:13;97843.52;;;18.80;39.88
69127;BME280;56688;50.234;19.292;2023-03-23T14:49:43;97847.98;;;18.79;40.18
69127;BME280;56688;50.234;19.292;2023-03-23T14:52:12;97838.88;;;18.78;39.74
69127;BME280;56688;50.234;19.292;2023-03-23T14:54:38;97841.39;;;18.80;39.50
69127;BME280;56688;50.234;19.292;2023-03-23T14:59:50;97834.27;;;18.83;39.88